Time;durP1;ratioP1;P1;durP2;ratioP2;P2;SDS_P1;SDS_P2;PMS_P1;PMS_P2;Temp;Humidity;BMP_temperature;BMP_pressure;BME280_temperature;BME280_humidity;BME280_pressure;Samples;Min_cycle;Max_cycle;Signal;HPM_P1;HPM_P2
2022/08/30 00:01:01;;;;;;;31.40;26.03;;;26.10;69.90;;;;;;5073769;28;20025;-59
2022/08/30 00:01:56;;;;;;;27.70;25.05;;;26.10;69.90;;;;;;5073307;28;20071;-57
2022/08/30 00:04:22;;;;;;;30.37;25.30;;;26.10;69.90;;;;;;5073333;28;20063;-60
2022/08/30 00:06:48;;;;;;;28.80;25.83;;;26.10;69.80;;;;;;5068040;28;20032;-59
2022/08/30 00:09:13;;;;;;;31.03;24.70;;;26.10;69.80;;;;;;5053776;28;20455;-59
2022/08/30 00:11:39;;;;;;;26.97;24.07;;;26.10;69.80;;;;;;5055798;28;20060;-59
2022/08/30 00:14:05;;;;;;;30.60;27.30;;;26.10;70.00;;;;;;5070310;28;20456;-58
2022/08/30 00:16:31;;;;;;;28.98;25.92;;;26.00;70.10;;;;;;5059960;28;20033;-57
2022/08/30 00:18:57;;;;;;;30.17;26.43;;;26.00;70.20;;;;;;5053594;28;20036;-58
2022/08/30 00:21:23;;;;;;;28.73;25.67;;;25.90;70.40;;;;;;5053447;28;20263;-59
2022/08/30 00:23:49;;;;;;;29.57;26.63;;;25.90;70.50;;;;;;5053590;28;20025;-60
2022/08/30 00:26:15;;;;;;;31.23;26.03;;;25.90;70.40;;;;;;5053655;28;20598;-57
2022/08/30 00:28:40;;;;;;;29.03;26.00;;;25.90;70.60;;;;;;5068251;28;20044;-59
2022/08/30 00:31:07;;;;;;;30.70;27.40;;;25.90;70.50;;;;;;5054542;28;20114;-58
2022/08/30 00:33:33;;;;;;;29.15;25.70;;;;;;;;;;5053358;28;20032;-57
2022/08/30 00:35:59;;;;;;;30.05;26.75;;;25.90;70.80;;;;;;5066602;28;20320;-58
2022/08/30 00:38:25;;;;;;;31.92;26.33;;;25.80;71.10;;;;;;5056087;28;20031;-59
2022/08/30 00:40:51;;;;;;;32.37;27.73;;;25.80;71.20;;;;;;5054247;28;20104;-60
2022/08/30 00:43:29;;;;;;;30.77;25.65;;;25.80;71.40;;;;;;5072792;28;20562;-60
2022/08/30 00:45:55;;;;;;;30.40;27.23;;;25.70;71.40;;;;;;5072633;28;20032;-61
2022/08/30 00:48:21;;;;;;;33.45;26.42;;;25.70;71.50;;;;;;5058910;28;20033;-60
2022/08/30 00:50:56;;;;;;;31.20;26.93;;;25.70;71.60;;;;;;5068141;28;20386;-60
2022/08/30 00:53:25;;;;;;;28.65;24.85;;;25.70;71.80;;;;;;5066099;28;20083;-57
2022/08/30 00:55:52;;;;;;;29.42;26.30;;;25.70;71.90;;;;;;5059091;28;20378;-60
2022/08/30 00:58:23;;;;;;;28.92;25.83;;;25.60;72.20;;;;;;5072858;28;20021;-57
2022/08/30 01:00:52;;;;;;;31.83;28.63;;;25.60;72.60;;;;;;5072420;28;20024;-59
2022/08/30 01:03:18;;;;;;;29.10;26.08;;;25.60;72.80;;;;;;5072519;28;20028;-60
2022/08/30 01:05:44;;;;;;;31.13;26.30;;;25.60;72.90;;;;;;5067830;28;20115;-59
2022/08/30 01:08:10;;;;;;;31.48;27.23;;;25.50;73.00;;;;;;5053744;28;20033;-58
2022/08/30 01:10:36;;;;;;;31.63;28.23;;;25.50;73.10;;;;;;5052271;28;20490;-57
2022/08/30 01:13:03;;;;;;;32.92;26.45;;;25.50;73.10;;;;;;5058720;28;20428;-59
2022/08/30 01:15:31;;;;;;;33.65;27.98;;;25.50;73.20;;;;;;5072189;28;20028;-59
2022/08/30 01:17:57;;;;;;;28.17;25.17;;;25.50;73.40;;;;;;5060577;28;20009;-57
2022/08/30 01:20:29;;;;;;;28.40;25.50;;;25.50;73.40;;;;;;5054789;28;20034;-59
2022/08/30 01:23:01;;;;;;;30.13;26.92;;;25.40;73.60;;;;;;5062671;28;20086;-58
2022/08/30 01:25:29;;;;;;;31.73;26.60;;;25.40;74.00;;;;;;5053343;28;20483;-58
2022/08/30 01:28:00;;;;;;;30.92;25.55;;;25.40;74.30;;;;;;5061316;28;20459;-59
2022/08/30 01:30:27;;;;;;;27.92;25.00;;;25.30;74.50;;;;;;5072246;28;20078;-58
2022/08/30 01:32:59;;;;;;;31.85;26.90;;;25.30;74.50;;;;;;5055848;28;20029;-59
2022/08/30 01:35:26;;;;;;;28.55;25.48;;;25.30;74.90;;;;;;5065165;28;20032;-57
2022/08/30 01:37:52;;;;;;;32.97;27.63;;;25.30;74.80;;;;;;5052102;28;20021;-59
2022/08/30 01:40:18;;;;;;;29.67;26.47;;;25.30;74.80;;;;;;5053184;28;20056;-57
2022/08/30 01:42:44;;;;;;;29.13;25.87;;;25.30;74.90;;;;;;5051860;28;20029;-59
2022/08/30 01:45:12;;;;;;;39.67;29.10;;;25.30;74.80;;;;;;5062846;28;20527;-56
2022/08/30 01:47:39;;;;;;;29.23;26.13;;;;;;;;;;5071876;28;20449;-58
2022/08/30 01:50:06;;;;;;;30.42;26.63;;;;;;;;;;5069749;28;20043;-59
2022/08/30 01:52:33;;;;;;;31.23;27.83;;;;;;;;;;5070012;28;20024;-58
2022/08/30 01:54:59;;;;;;;;;;;;;;;;;;5066068;28;20023;-58
2022/08/30 01:57:28;;;;;;;30.83;26.65;;;;;;;;;;5057861;28;20349;-58
2022/08/30 01:59:54;;;;;;;30.95;26.25;;;;;;;;;;5051671;28;20028;-60
2022/08/30 02:02:23;;;;;;;31.45;27.48;;;;;;;;;;5062051;28;20549;-58
2022/08/30 02:04:50;;;;;;;29.60;26.60;;;;;;;;;;5066123;28;20032;-59
2022/08/30 02:07:16;;;;;;;29.38;26.33;;;;;;;;;;5064186;28;20360;-59
2022/08/30 02:09:43;;;;;;;28.08;25.08;;;;;;;;;;5057931;28;20039;-57
2022/08/30 02:12:10;;;;;;;28.63;25.27;;;;;;;;;;5070840;28;20020;-58
2022/08/30 02:14:36;;;;;;;29.10;26.00;;;;;;;;;;5071436;28;20024;-60
2022/08/30 02:17:02;;;;;;;;;;;;;;;;;;5052900;28;20775;-60
2022/08/30 02:19:29;;;;;;;27.75;24.70;;;;;;;;;;5060190;28;19909;-59
2022/08/30 02:21:55;;;;;;;31.98;24.77;;;;;;;;;;5054739;28;20017;-59
2022/08/30 02:24:21;;;;;;;30.30;26.00;;;;;;;;;;5071278;28;20036;-59
2022/08/30 02:26:47;;;;;;;28.98;25.63;;;;;;;;;;5069573;28;20036;-59
2022/08/30 02:29:14;;;;;;;29.17;24.55;;;;;;;;;;5071169;28;20056;-60
2022/08/30 02:31:40;;;;;;;28.35;25.20;;;;;;;;;;5070474;28;20075;-59
2022/08/30 02:34:06;;;;;;;28.67;24.87;;;;;;;;;;5066547;28;20025;-59
2022/08/30 02:36:32;;;;;;;30.00;25.02;;;;;;;;;;5105201;22;20324;-63
2022/08/30 02:38:58;;;;;;;28.58;25.45;;;;;;;;;;5069333;28;20055;-65
2022/08/30 02:41:25;;;;;;;32.38;26.45;;;;;;;;;;5051180;28;20051;-65
2022/08/30 02:43:51;;;;;;;29.40;24.75;;;;;;;;;;5051371;28;20018;-65
2022/08/30 02:46:17;;;;;;;30.95;26.33;;;;;;;;;;5057861;28;20017;-65
2022/08/30 02:48:43;;;;;;;29.58;26.48;;;;;;;;;;5070958;28;20025;-65
2022/08/30 02:51:11;;;;;;;30.77;24.73;;;;;;;;;;5070126;28;20021;-65
2022/08/30 02:53:37;;;;;;;30.10;25.77;;;;;;;;;;5070382;28;20031;-65
2022/08/30 02:56:04;;;;;;;29.40;25.13;;;;;;;;;;5070990;28;20024;-65
2022/08/30 02:58:30;;;;;;;29.55;24.80;;;;;;;;;;5071228;28;20025;-65
2022/08/30 03:00:56;;;;;;;27.80;24.77;;;;;;;;;;5070338;28;20482;-64
2022/08/30 03:03:22;;;;;;;29.40;26.23;;;;;;;;;;5070543;28;20035;-63
2022/08/30 03:05:48;;;;;;;30.35;26.00;;;;;;;;;;5070861;28;20453;-63
2022/08/30 03:08:14;;;;;;;27.60;24.70;;;;;;;;;;5071182;28;20028;-64
2022/08/30 03:10:40;;;;;;;28.30;24.38;;;;;;;;;;5072309;28;20266;-65
2022/08/30 03:13:07;;;;;;;28.05;25.05;;;;;;;;;;5068972;28;20028;-65
2022/08/30 03:15:34;;;;;;;26.85;24.08;;;;;;;;;;5054630;28;20023;-63
2022/08/30 03:18:01;;;;;;;26.92;24.08;;;;;;;;;;5063902;28;20048;-63
2022/08/30 03:20:28;;;;;;;52.03;25.77;;;;;;;;;;5074641;28;20020;-64
2022/08/30 03:22:54;;;;;;;28.52;25.23;;;;;;;;;;5074201;28;20029;-65
2022/08/30 03:25:20;;;;;;;25.38;22.83;;;;;;;;;;5074418;28;20032;-63
2022/08/30 03:27:46;;;;;;;26.88;22.40;;;;;;;;;;5074555;28;20410;-63
2022/08/30 03:30:13;;;;;;;27.65;24.15;;;;;;;;;;5074191;28;20502;-63
2022/08/30 03:32:40;;;;;;;27.73;24.90;;;;;;;;;;5074040;28;20033;-63
2022/08/30 03:35:06;;;;;;;26.52;23.70;;;;;;;;;;5068843;28;20479;-63
2022/08/30 03:37:33;;;;;;;28.23;24.13;;;;;;;;;;5053559;28;20035;-64
2022/08/30 03:39:59;;;;;;;28.50;23.08;;;;;;;;;;5072505;28;20027;-64
2022/08/30 03:42:25;;;;;;;26.05;22.73;;;;;;;;;;5073607;28;20028;-65
2022/08/30 03:44:51;;;;;;;25.07;22.63;;;;;;;;;;5074015;28;20478;-64
2022/08/30 03:47:17;;;;;;;27.43;21.70;;;;;;;;;;5055769;28;20278;-65
2022/08/30 03:49:43;;;;;;;24.33;21.97;;;;;;;;;;5073860;28;20277;-65
2022/08/30 03:52:09;;;;;;;24.17;21.60;;;;;;;;;;5073891;28;20779;-65
2022/08/30 03:54:35;;;;;;;23.60;21.17;;;;;;;;;;5073763;28;20263;-65
2022/08/30 03:57:01;;;;;;;24.20;20.70;;;;;;;;;;5055364;28;20346;-64
2022/08/30 03:59:28;;;;;;;22.30;19.08;;;;;;;;;;5073570;28;20024;-64
2022/08/30 04:01:54;;;;;;;21.90;19.08;;;;;;;;;;5073370;28;20465;-64
2022/08/30 04:04:20;;;;;;;17.50;15.27;;;;;;;;;;5073925;28;20024;-64
2022/08/30 04:06:46;;;;;;;14.35;12.90;;;;;;;;;;5073528;28;20475;-64
2022/08/30 04:09:12;;;;;;;11.43;10.27;;;;;;;;;;5073801;28;20031;-64
2022/08/30 04:11:39;;;;;;;12.03;10.70;;;;;;;;;;5073988;28;20262;-64
2022/08/30 04:14:05;;;;;;;11.43;10.05;;;;;;;;;;5073749;28;20021;-64
2022/08/30 04:16:31;;;;;;;13.03;9.63;;;;;;;;;;5055758;28;20089;-64
2022/08/30 04:18:57;;;;;;;10.73;7.53;;;;;;;;;;5055674;28;20308;-64
2022/08/30 04:21:23;;;;;;;11.70;7.10;;;;;;;;;;5073038;28;20251;-65
2022/08/30 04:23:49;;;;;;;9.43;6.25;;;;;;;;;;5073620;28;20024;-65
2022/08/30 04:26:15;;;;;;;7.37;6.57;;;;;;;;;;5073370;28;20033;-65
2022/08/30 04:28:41;;;;;;;7.63;5.83;;;;;;;;;;5073505;28;20277;-65
2022/08/30 04:31:09;;;;;;;7.32;6.03;;;;;;;;;;5073319;28;20059;-65
2022/08/30 04:33:35;;;;;;;7.07;5.35;;;;;;;;;;5055417;28;20440;-64
2022/08/30 04:36:05;;;;;;;6.22;5.50;;;;;;;;;;5073302;28;20139;-63
2022/08/30 04:38:32;;;;;;;8.07;5.30;;;;;;;;;;5055376;28;20017;-64
2022/08/30 04:40:58;;;;;;;5.93;4.97;;;;;;;;;;5054948;28;20094;-64
2022/08/30 04:43:25;;;;;;;9.15;5.50;;;;;;;;;;5073296;28;20466;-64
2022/08/30 04:45:52;;;;;;;5.72;4.55;;;;;;;;;;5055223;28;20187;-64
2022/08/30 04:48:18;;;;;;;6.72;5.35;;;;;;;;;;5073466;28;20445;-65
2022/08/30 04:50:45;;;;;;;7.85;5.18;;;;;;;;;;5072954;28;20102;-64
2022/08/30 04:53:12;;;;;;;5.38;4.10;;;;;;;;;;5072951;28;20502;-64
2022/08/30 04:55:38;;;;;;;;;;;;;;;;;;5073326;28;20363;-65
2022/08/30 04:58:05;;;;;;;7.65;5.03;;;;;;;;;;5073233;28;19911;-68
2022/08/30 05:00:31;;;;;;;5.03;4.50;;;;;;;;;;5072654;28;20024;-64
2022/08/30 05:02:57;;;;;;;11.43;4.80;;;;;;;;;;5072746;28;20032;-65
2022/08/30 05:05:38;;;;;;;7.35;4.90;;;;;;;;;;5072710;28;20475;-64
2022/08/30 05:08:06;;;;;;;8.77;5.32;;;;;;;;;;5054646;28;20498;-64
2022/08/30 05:10:33;;;;;;;6.28;5.28;;;;;;;;;;5072399;28;20024;-64
2022/08/30 05:12:59;;;;;;;7.15;6.07;;;;;;;;;;5072465;28;20032;-64
2022/08/30 05:15:25;;;;;;;7.57;5.75;;;;;;;;;;5054604;28;20023;-64
2022/08/30 05:17:51;;;;;;;10.18;6.28;;;;;;;;;;5072544;28;20101;-64
2022/08/30 05:20:17;;;;;;;9.03;6.23;;;;;;;;;;5072384;28;20028;-64
2022/08/30 05:22:50;;;;;;;8.13;7.15;;;;;;;;;;5072130;28;20632;-64
2022/08/30 05:25:19;;;;;;;10.27;7.30;;;;;;;;;;5072328;28;20056;-64
2022/08/30 05:27:46;;;;;;;7.18;5.53;;;;;;;;;;5072289;28;20028;-63
2022/08/30 05:30:13;;;;;;;6.47;5.00;;;;;;;;;;5072637;28;20036;-62
2022/08/30 05:32:40;;;;;;;10.57;4.80;;;;;;;;;;5071296;28;20027;-64
2022/08/30 05:35:06;;;;;;;6.55;5.10;;;;;;;;;;5054151;28;20111;-65
2022/08/30 05:37:32;;;;;;;6.47;5.88;;;;;;;;;;5054365;28;20029;-64
2022/08/30 05:39:59;;;;;;;6.38;5.32;;;;;;;;;;5054216;28;20115;-65
2022/08/30 05:42:25;;;;;;;8.65;4.85;;;;;;;;;;5071886;28;20028;-65
2022/08/30 05:44:51;;;;;;;8.85;5.22;;;;;;;;;;5072057;28;20028;-64
2022/08/30 05:47:18;;;;;;;9.90;5.68;;;;;;;;;;5071895;28;20127;-64
2022/08/30 05:49:44;;;;;;;6.95;4.80;;;;;;;;;;5071803;28;20032;-64
2022/08/30 05:52:11;;;;;;;5.97;5.15;;;;;;;;;;5053680;28;20031;-64
2022/08/30 05:54:37;;;;;;;5.93;4.78;;;;;;;;;;5053861;28;20025;-63
2022/08/30 05:57:03;;;;;;;13.32;5.85;;;;;;;;;;5071823;28;20047;-63
2022/08/30 05:59:30;;;;;;;5.40;4.90;;;;;;;;;;5071815;28;20074;-63
2022/08/30 06:01:56;;;;;;;10.52;5.70;;;;;;;;;;5053556;28;20062;-63
2022/08/30 06:04:22;;;;;;;7.97;4.85;;;;;;;;;;5053747;28;20028;-63
2022/08/30 06:06:48;;;;;;;6.37;4.90;;;;;;;;;;5071828;28;20118;-63
2022/08/30 06:09:14;;;;;;;6.10;4.60;;;;;;;;;;5071948;28;20028;-64
2022/08/30 06:11:41;;;;;;;4.65;4.25;;;;;;;;;;5071457;28;20120;-65
2022/08/30 06:14:07;;;;;;;;;;;;;;;;;;5072096;28;20025;-64
2022/08/30 06:16:34;;;;;;;4.32;3.92;;;;;;;;;;5071409;28;19904;-65
2022/08/30 06:19:00;;;;;;;6.28;4.28;;;;;;;;;;5071475;28;20017;-65
2022/08/30 06:21:28;;;;;;;6.78;4.45;;;;;;;;;;5071410;28;20028;-64
2022/08/30 06:23:55;;;;;;;11.43;4.43;;;;;;;;;;5071542;28;20497;-65
2022/08/30 06:26:21;;;;;;;9.68;5.20;;;;;;;;;;5071522;28;20035;-65
2022/08/30 06:28:48;;;;;;;8.73;5.05;;;;;;;;;;5053635;28;20020;-65
2022/08/30 06:31:15;;;;;;;4.78;4.38;;;;;;;;;;5071160;28;20478;-64
2022/08/30 06:33:41;;;;;;;8.65;5.70;;;;;;;;;;5053377;28;20031;-65
2022/08/30 06:36:10;;;;;;;6.57;4.85;;;;;;;;;;5053320;28;20028;-64
2022/08/30 06:38:36;;;;;;;7.53;4.75;;;;;;;;;;5053479;28;20140;-64
2022/08/30 06:41:10;;;;;;;6.73;4.53;;;;;;;;;;5071221;28;20028;-64
2022/08/30 06:43:36;;;;;;;11.30;5.20;;;;;;;;;;5053406;28;20589;-63
2022/08/30 06:46:06;;;;;;;7.82;5.28;;;;;;;;;;5057274;28;20033;-63
2022/08/30 06:48:32;;;;;;;5.43;4.72;;;;;;;;;;5075352;28;20043;-62
2022/08/30 06:50:58;;;;;;;11.57;5.32;;;;;;;;;;5075265;28;20029;-63
2022/08/30 06:53:25;;;;;;;6.07;4.93;;;;;;;;;;5075245;28;20047;-63
2022/08/30 06:55:55;;;;;;;7.82;5.82;;;;;;;;;;5075225;28;20048;-63
2022/08/30 06:58:21;;;;;;;6.45;5.63;;;;;;;;;;5074881;28;20478;-63
2022/08/30 07:00:47;;;;;;;10.17;6.53;;;;;;;;;;5074931;28;20107;-64
2022/08/30 07:03:13;;;;;;;7.25;5.82;;;;;;;;;;5075185;28;20390;-65
2022/08/30 07:05:39;;;;;;;7.72;6.03;;;;;;;;;;5057130;28;20028;-65
2022/08/30 07:08:05;;;;;;;6.57;5.25;;;;;;;;;;5075134;28;20031;-65
2022/08/30 07:10:31;;;;;;;11.68;6.30;;;;;;;;;;5056877;28;20028;-65
2022/08/30 07:12:57;;;;;;;12.88;6.20;;;;;;;;;;5074704;28;20026;-65
2022/08/30 07:15:23;;;;;;;8.50;5.73;;;;;;;;;;5074805;28;20020;-64
2022/08/30 07:20:37;;;;;;;7.93;6.20;;;;;;;;;;5074636;28;20445;-65
2022/08/30 07:23:03;;;;;;;8.40;6.72;;;;;;;;;;5074743;28;20028;-64
2022/08/30 07:25:29;;;;;;;16.10;8.50;;;;;;;;;;5074452;28;20032;-65
2022/08/30 07:27:55;;;;;;;11.68;8.77;;;;;;;;;;5074732;28;20081;-65
2022/08/30 07:30:22;;;;;;;9.35;8.10;;;;;;;;;;5074669;28;20048;-64
2022/08/30 07:32:48;;;;;;;;;;;;;;;;;;5074777;28;20028;-64
2022/08/30 07:35:15;;;;;;;25.20;15.20;;;;;;;;;;5056469;28;20301;-68
2022/08/30 07:37:41;;;;;;;11.30;9.13;;;;;;;;;;5074431;28;20111;-67
2022/08/30 07:40:08;;;;;;;9.90;8.43;;;;;;;;;;5074241;28;20025;-65
2022/08/30 07:42:34;;;;;;;10.35;9.07;;;;;;;;;;5074259;28;20031;-66
2022/08/30 07:45:01;;;;;;;12.40;10.20;;;;;;;;;;5056300;28;20029;-66
2022/08/30 07:47:27;;;;;;;13.43;11.50;;;;;;;;;;5074194;28;20035;-67
2022/08/30 07:49:54;;;;;;;13.73;10.47;;;;;;;;;;5074207;28;20039;-66
2022/08/30 07:52:20;;;;;;;14.00;10.50;;;;;;;;;;5074393;28;20304;-66
2022/08/30 07:54:46;;;;;;;13.33;11.33;;;;;;;;;;5056041;28;20281;-67
2022/08/30 07:57:12;;;;;;;12.40;10.23;;;;;;;;;;5073121;28;20267;-67
2022/08/30 07:59:38;;;;;;;18.10;10.57;;;;;;;;;;5073958;28;20024;-67
2022/08/30 08:02:04;;;;;;;13.30;11.17;;;;;;;;;;5073858;28;20036;-67
2022/08/30 08:04:30;;;;;;;13.20;10.83;;;;;;;;;;5073943;28;20281;-66
2022/08/30 08:06:56;;;;;;;12.52;10.95;;;;;;;;;;5073835;28;20771;-67
2022/08/30 08:09:22;;;;;;;14.68;10.88;;;;;;;;;;5073802;28;20025;-67
2022/08/30 08:11:48;;;;;;;16.10;12.05;;;;;;;;;;5073579;28;20101;-67
2022/08/30 08:14:14;;;;;;;15.63;11.35;;;;;;;;;;5055781;28;20021;-67
2022/08/30 08:16:45;;;;;;;15.55;12.10;;;;;;;;;;5073696;28;20021;-66
2022/08/30 08:19:11;;;;;;;13.60;11.15;;;;;;;;;;5073749;28;20021;-66
2022/08/30 08:21:38;;;;;;;14.75;12.10;;;;;;;;;;5073416;28;20024;-66
2022/08/30 08:24:04;;;;;;;16.05;13.07;;;;;;;;;;5073801;28;20047;-67
2022/08/30 08:26:30;;;;;;;19.35;13.73;;;;;;;;;;5073496;28;20074;-67
2022/08/30 08:28:56;;;;;;;19.13;13.43;;;;;;;;;;5073465;28;20112;-66
2022/08/30 08:31:24;;;;;;;14.68;12.43;;;;;;;;;;5073266;28;20032;-67
2022/08/30 08:33:50;;;;;;;17.67;12.68;;;;;;;;;;5073310;28;20055;-66
2022/08/30 08:36:17;;;;;;;20.45;12.98;;;;;;;;;;5079111;22;20519;-66
2022/08/30 08:38:43;;;;;;;15.13;12.32;;;;;;;;;;5073143;28;20013;-66
2022/08/30 08:41:28;;;;;;;16.92;13.35;;;;;;;;;;5073131;28;20036;-66
2022/08/30 08:43:54;;;;;;;19.25;14.50;;;;;;;;;;5073319;28;20494;-66
2022/08/30 08:46:35;;;;;;;15.65;13.93;;;;;;;;;;5055197;28;20066;-65
2022/08/30 08:49:03;;;;;;;16.50;14.57;;;;;;;;;;5055145;28;20063;-66
2022/08/30 08:54:25;;;;;;;17.58;15.68;;;;;;;;;;5073285;28;20090;-66
2022/08/30 08:56:51;;;;;;;18.77;15.90;;;;;;;;;;5072818;28;20017;-65
2022/08/30 08:59:17;;;;;;;24.30;16.42;;;;;;;;;;5054794;28;20028;-66
2022/08/30 09:01:43;;;;;;;22.60;15.35;;;;;;;;;;5072645;28;20020;-66
2022/08/30 09:04:11;;;;;;;18.50;16.23;;;;;;;;;;5055071;28;20024;-65
2022/08/30 09:06:45;;;;;;;18.33;16.10;;;;;;;;;;5072705;28;20020;-66
2022/08/30 09:09:11;;;;;;;19.98;15.55;;;;;;;;;;5072753;28;20025;-66
2022/08/30 09:11:39;;;;;;;18.27;15.43;;;;;;;;;;5072331;28;20486;-66
2022/08/30 09:14:09;;;;;;;23.85;16.02;;;;;;;;;;5072530;28;20564;-66
2022/08/30 09:16:44;;;;;;;19.95;14.68;;;;;;;;;;5072489;28;20021;-66
2022/08/30 09:19:10;;;;;;;19.08;16.40;;;;;;;;;;5072423;28;20048;-66
2022/08/30 09:21:37;;;;;;;23.45;17.58;;;;;;;;;;5072340;28;20024;-66
2022/08/30 09:24:04;;;;;;;19.05;16.83;;;;;;;;;;5072355;28;20557;-65
2022/08/30 09:26:37;;;;;;;18.60;15.93;;;;;;;;;;5072155;28;20390;-66
2022/08/30 09:29:04;;;;;;;21.75;16.50;;;;;;;;;;5054418;28;20061;-66
2022/08/30 09:31:53;;;;;;;18.67;15.75;;;;;;;;;;5072064;28;20039;-66
2022/08/30 09:34:22;;;;;;;24.02;16.70;;;;;;;;;;5061790;28;20119;-66
2022/08/30 09:36:52;;;;;;;21.48;17.48;;;;;;;;;;5072031;28;20063;-66
2022/08/30 09:39:40;;;;;;;22.33;17.75;;;;;;;;;;5072088;28;20066;-65
2022/08/30 09:42:27;;;;;;;23.00;17.65;;;;;;;;;;5072038;28;20090;-66
2022/08/30 09:45:09;;;;;;;20.10;16.50;;;;;;;;;;5072000;28;20021;-66
2022/08/30 09:47:35;;;;;;;23.38;16.98;;;;;;;;;;5071966;28;20024;-66
2022/08/30 09:50:11;;;;;;;21.05;16.63;;;;;;;;;;5071981;28;20024;-66
2022/08/30 09:52:55;;;;;;;22.40;16.60;;;;;;;;;;5071822;28;20028;-66
2022/08/30 09:55:43;;;;;;;21.70;17.00;;;;;;;;;;5072225;28;20104;-65
2022/08/30 09:58:09;;;;;;;16.88;15.00;;;;;;;;;;5071905;28;20096;-65
2022/08/30 10:00:47;;;;;;;17.83;15.98;;;;;;;;;;5071653;28;20020;-65
2022/08/30 10:03:16;;;;;;;18.35;16.45;;;;;;;;;;5071866;28;20028;-65
2022/08/30 10:06:05;;;;;;;18.20;15.60;;;;;;;;;;5071599;28;20020;-65
2022/08/30 10:08:46;;;;;;;23.70;17.27;;;;;;;;;;5071765;28;20437;-65
2022/08/30 10:11:27;;;;;;;19.63;15.35;;;;;;;;;;5071483;28;20021;-65
2022/08/30 10:13:57;;;;;;;21.88;17.25;;;;;;;;;;5053085;28;20037;-66
2022/08/30 10:16:35;;;;;;;21.98;16.60;;;;;;;;;;5071110;28;20047;-66
2022/08/30 10:19:07;;;;;;;19.42;15.32;;;;;;;;;;5052327;28;20039;-65
2022/08/30 10:21:53;;;;;;;18.92;16.45;;;;;;;;;;5071389;28;20020;-65
2022/08/30 10:24:22;;;;;;;18.63;16.42;;;;;;;;;;5052931;28;20547;-65
2022/08/30 10:26:58;;;;;;;22.50;15.55;;;;;;;;;;5053230;28;20020;-65
2022/08/30 10:29:45;;;;;;;21.27;17.30;;;;;;;;;;5071508;28;20556;-66
2022/08/30 10:32:14;;;;;;;19.73;13.73;;;;;;;;;;5071330;28;20021;-66
2022/08/30 10:34:44;;;;;;;15.55;13.23;;;;;;;;;;5051390;28;20104;-65
2022/08/30 10:37:12;;;;;;;19.60;15.07;;;;;;;;;;5059836;28;20386;-66
2022/08/30 10:39:42;;;;;;;18.23;13.70;;;;;;;;;;5070804;28;20114;-66
2022/08/30 10:42:11;;;;;;;18.65;15.60;;;;;;;;;;5052973;28;20031;-66
2022/08/30 10:44:43;;;;;;;18.60;14.30;;;;;;;;;;5071327;28;20421;-66
2022/08/30 10:47:21;;;;;;;16.35;13.95;;;;;;;;;;5070719;28;20032;-66
2022/08/30 10:49:48;;;;;;;19.27;13.40;;;;;;;;;;5071202;28;20039;-66
2022/08/30 10:52:22;;;;;;;14.93;13.35;;;;;;;;;;5052804;28;20024;-66
2022/08/30 10:54:50;;;;;;;24.40;14.85;;;;;;;;;;5052418;28;20111;-66
2022/08/30 10:57:17;;;;;;;16.40;13.07;;;;;;;;;;5070858;28;20029;-66
2022/08/30 10:59:51;;;;;;;16.55;12.77;;;;;;;;;;5067144;28;20040;-66
2022/08/30 11:02:23;;;;;;;17.35;12.18;;;;;;;;;;5070509;28;20058;-66
2022/08/30 11:05:08;;;;;;;15.13;12.93;;;;;;;;;;5068164;28;20024;-66
2022/08/30 11:07:37;;;;;;;15.18;12.32;;;;;;;;;;5070523;28;20028;-66
2022/08/30 11:10:12;;;;;;;15.43;11.23;;;;;;;;;;5070648;28;20125;-66
2022/08/30 11:12:38;;;;;;;15.65;11.07;;;;;;;;;;5070400;28;20502;-66
2022/08/30 11:15:12;;;;;;;14.15;9.35;;;;;;;;;;5070693;28;20024;-66
2022/08/30 11:18:05;;;;;;;16.95;10.27;;;;;;;;;;5070846;28;20478;-66
2022/08/30 11:20:40;;;;;;;12.60;9.68;;;;;;;;;;5065323;28;20345;-66
2022/08/30 11:23:06;;;;;;;11.73;8.80;;;;;;;;;;5051004;28;20526;-66
2022/08/30 11:25:51;;;;;;;12.50;8.80;;;;;;;;;;5065262;28;20071;-66
2022/08/30 11:28:35;;;;;;;10.52;7.32;;;;;;;;;;5052988;28;20028;-66
2022/08/30 11:31:07;;;;;;;10.43;8.18;;;;;;;;;;5052642;28;20537;-66
2022/08/30 11:33:46;;;;;;;10.52;8.23;;;;;;;;;;5074325;28;20028;-66
2022/08/30 11:36:34;;;;;;;10.43;6.50;;;;;;;;;;5074393;28;20024;-66
2022/08/30 11:39:00;;;;;;;11.48;8.27;;;;;;;;;;5054257;28;20104;-66
2022/08/30 11:41:29;;;;;;;11.35;7.82;;;;;;;;;;5054294;28;20427;-66
2022/08/30 11:43:56;;;;;;;12.85;7.75;;;;;;;;;;5071726;28;20052;-66
2022/08/30 11:46:23;;;;;;;;;;;;;;;;;;5074535;28;20028;-66
2022/08/30 11:48:50;;;;;;;12.57;6.93;;;;;;;;;;5073764;28;19915;-66
2022/08/30 11:51:35;;;;;;;8.88;7.22;;;;;;;;;;5073689;28;20032;-66
2022/08/30 11:54:11;;;;;;;7.88;6.53;;;;;;;;;;5055853;28;20383;-66
2022/08/30 11:56:56;;;;;;;8.77;6.72;;;;;;;;;;5073778;28;20091;-66
2022/08/30 11:59:35;;;;;;;11.20;7.65;;;;;;;;;;5055749;28;20071;-66
2022/08/30 12:02:01;;;;;;;12.32;8.55;;;;;;;;;;5073902;28;20070;-66
2022/08/30 12:04:47;;;;;;;12.82;7.90;;;;;;;;;;5073903;28;20479;-66
2022/08/30 12:07:33;;;;;;;10.50;9.43;;;;;;;;;;5073390;28;20474;-66
2022/08/30 12:10:00;;;;;;;12.27;9.18;;;;;;;;;;5068727;28;20029;-66
2022/08/30 12:12:30;;;;;;;9.93;7.40;;;;;;;;;;5073505;28;20071;-66
2022/08/30 12:14:56;;;;;;;12.80;9.20;;;;;;;;;;5073666;28;20166;-66
2022/08/30 12:20:15;;;;;;;12.88;8.27;;;;;;;;;;5070358;28;19926;-66
2022/08/30 12:22:41;;;;;;;8.52;7.57;;;;;;;;;;5073233;28;20486;-66
2022/08/30 12:25:21;;;;;;;18.15;7.45;;;;;;;;;;5055688;28;20055;-66
2022/08/30 12:27:47;;;;;;;9.30;8.23;;;;;;;;;;5072899;28;20123;-66
2022/08/30 12:30:14;;;;;;;12.82;7.45;;;;;;;;;;5073087;28;20078;-66
2022/08/30 12:32:45;;;;;;;13.38;6.47;;;;;;;;;;5072969;28;20036;-66
2022/08/30 12:35:18;;;;;;;12.52;6.78;;;;;;;;;;5073372;28;20021;-66
2022/08/30 12:37:54;;;;;;;9.85;7.05;;;;;;;;;;5054679;28;20059;-66
2022/08/30 12:40:22;;;;;;;11.38;6.68;;;;;;;;;;5073338;28;20016;-66
2022/08/30 12:42:52;;;;;;;8.95;6.72;;;;;;;;;;5072440;28;20054;-66
2022/08/30 12:45:20;;;;;;;10.40;6.90;;;;;;;;;;5073007;28;20029;-66
2022/08/30 12:47:50;;;;;;;9.23;6.28;;;;;;;;;;5054898;28;20036;-66
2022/08/30 12:50:20;;;;;;;9.32;6.43;;;;;;;;;;5073292;28;20059;-66
2022/08/30 12:52:48;;;;;;;7.70;6.88;;;;;;;;;;5072338;28;20445;-66
2022/08/30 12:55:24;;;;;;;14.32;7.97;;;;;;;;;;5055160;28;20498;-66
2022/08/30 12:57:59;;;;;;;10.32;7.05;;;;;;;;;;5072593;28;20265;-66
2022/08/30 13:00:25;;;;;;;12.60;7.55;;;;;;;;;;5072571;28;20025;-66
2022/08/30 13:02:52;;;;;;;15.32;7.35;;;;;;;;;;5054334;28;20032;-66
2022/08/30 13:05:37;;;;;;;7.90;6.78;;;;;;;;;;5072479;28;20382;-66
2022/08/30 13:08:09;;;;;;;9.27;7.40;;;;;;;;;;5054189;28;20497;-66
2022/08/30 13:10:35;;;;;;;9.38;7.93;;;;;;;;;;5072500;28;20487;-66
2022/08/30 13:13:04;;;;;;;10.23;7.30;;;;;;;;;;5054390;28;20068;-66
2022/08/30 13:15:31;;;;;;;9.65;7.07;;;;;;;;;;5072426;28;20494;-66
2022/08/30 13:18:11;;;;;;;14.88;7.28;;;;;;;;;;5071947;28;20042;-66
2022/08/30 13:20:37;;;;;;;12.43;7.70;;;;;;;;;;5071755;28;20021;-66
2022/08/30 13:23:03;;;;;;;11.52;8.40;;;;;;;;;;5054112;28;20071;-66
2022/08/30 13:25:29;;;;;;;10.20;8.93;;;;;;;;;;5071251;28;20027;-66
2022/08/30 13:27:56;;;;;;;11.75;9.73;;;;;;;;;;5043637;28;20478;-66
2022/08/30 13:30:22;;;;;;;13.15;8.25;;;;;;;;;;5071652;28;20024;-66
2022/08/30 13:32:48;;;;;;;9.40;8.40;;;;;;;;;;5071920;28;20032;-66
2022/08/30 13:35:14;;;;;;;9.75;8.48;;;;;;;;;;5072101;28;20487;-65
2022/08/30 13:37:41;;;;;;;10.90;8.27;;;;;;;;;;5071974;28;20145;-66
2022/08/30 13:40:08;;;;;;;10.95;8.35;;;;;;;;;;5072092;28;20020;-66
2022/08/30 13:42:34;;;;;;;13.10;8.60;;;;;;;;;;5070517;28;20028;-66
2022/08/30 13:45:00;;;;;;;8.25;7.32;;;;;;;;;;5054242;28;20060;-66
2022/08/30 13:47:26;;;;;;;13.45;7.40;;;;;;;;;;5046834;28;20385;-66
2022/08/30 13:49:52;;;;;;;;;;;;;;;;;;5052409;28;20032;-65
2022/08/30 13:52:24;;;;;;;10.32;6.18;;;;;;;;;;5051561;28;19908;-66
2022/08/30 13:54:51;;;;;;;11.77;5.78;;;;;;;;;;5064982;28;20020;-67
2022/08/30 13:57:19;;;;;;;9.15;6.43;;;;;;;;;;5063563;28;20107;-66
2022/08/30 13:59:45;;;;;;;8.13;5.55;;;;;;;;;;5071827;28;20486;-66
2022/08/30 14:02:11;;;;;;;11.70;6.32;;;;;;;;;;5053447;28;20499;-65
2022/08/30 14:04:37;;;;;;;7.25;5.97;;;;;;;;;;5071480;28;20111;-65
2022/08/30 14:07:04;;;;;;;11.43;6.28;;;;;;;;;;5071364;28;20039;-66
2022/08/30 14:09:30;;;;;;;9.65;5.82;;;;;;;;;;5071024;28;20033;-65
2022/08/30 14:11:56;;;;;;;9.88;6.85;;;;;;;;;;5063841;28;20031;-65
2022/08/30 14:14:23;;;;;;;8.68;5.78;;;;;;;;;;5051593;28;20029;-66
2022/08/30 14:16:49;;;;;;;9.25;6.93;;;;;;;;;;5063061;28;20378;-65
2022/08/30 14:19:15;;;;;;;;;;;;;;;;;;5072142;28;20063;-66
2022/08/30 14:21:42;;;;;;;8.90;6.43;;;;;;;;;;5053820;28;19929;-65
2022/08/30 14:24:09;;;;;;;7.75;6.00;;;;;;;;;;5071413;28;20051;-65
2022/08/30 14:26:42;;;;;;;7.78;6.20;;;;;;;;;;5053559;28;20020;-65
2022/08/30 14:29:09;;;;;;;11.52;6.70;;;;;;;;;;5052458;28;20051;-66